AIRPORT ID: Y14

DATE: 2021-12-09 ZULU TIME: 0.55 LOCAL TIME: 18.55


METAR KY14 090055Z AUTO 12010KT 10SM M01/M06 A2964

ALTIMETER: A2964 Q1004

DENSITY ALT: 400 Ft

WIND DIRECT: 130

WIND SPEED: 10 Gust

WIND CONDITIONS:

VISIBILTY: 10SM 9999M

TEMPERATURE: 30 F -1 C

DEW POINT: 21 F -6 C

HUMID: 68%

LCL: 1,000-3,000 feet

RADIO CHECK: 0

ADVISARIES: 0

GREETINGS: 0

CONVERSATIONS: 7